Middle River, Minnesota
Current Conditions -  °F | °C
As of 5:35 PM on Friday 28 Nov 2014 (Local Time) from KTVF Reporting Station
Overcast Overcast  
Wind Chill:   Ceiling: 3200
Heat Index: 16°   Visibility: 10mi
Dew Point:   Wind: 14mph
Humidity: 73%   Direction: 130°SE
Pressure: 29.76"   Gusts: NA
Location:  48.43°N, 96.16°W
Report Text: KTVF 282335Z AUTO 13012KT 10SM BKN032 OVC040 M09/M13 A2976 RMK AO1
Loading
Personal Weather Stations






























Interactive Weather Map New forecast layout! Learn more

10-Day Weather Forecast

Advertisements
Track Severe Weather on mobile